الصفحة الرئيسية
METAR-TAF:

METAR-TAF

مطار :

Truth or Consequences Municipal Airport

Truth or Consequences, نيومكسيكو, الولايات المتحدة

دائرة عرض: 33-14-12N, خط طول: 107-16-05W, ارتفاع: 1478 متر

مراقبة الطقس الحالي

تاريخ ووقت الإصدار 49 دقيقة قبل الساعة 00:53UTC
ريح 7 عقدة من الشمال/الشمال الغربي
درجة الحرارة 9°درجة مئوية
الرطوبة 53%
ضغط 1020 hPa
الرؤية: 16.1 كم
سماء صافية

METAR: KTCS 230053Z AUTO 33007KT 10SM CLR 09/00 A3011 RMK AO2 SLP174 T00940000

زمن: 18:42 (01:42 UTC)

توقعات

تاريخ ووقت الإصدار 2ساعات و 22 دقيقة قبل الساعة 23:20UTC
التوقعات صالحة من23 الساعة 00 UTC إلى 23 الساعة 24 UTC
ريح 5 عقدة من الجنوب الشرقي
الرؤية: 10 كم
غيوم قليلة على ارتفاع 6000 قدم
من 23 الساعة 0100 UTC
ريح 6 عقدة من الشمال/الشمال الغربي
الرؤية: 10 كم
غيوم متفرقة على ارتفاع 10000 قدم
من 23 الساعة 2200 UTC
ريح 6 عقدة من الشمال الشرقي
الرؤية: 10 كم
غيوم قليلة على ارتفاع 25000 قدم

TAF: KTCS 222320Z 2300/2324 13005KT P6SM FEW060 FM230100 34006KT P6SM SCT100 FM232200 05006KT P6SM FEW250

أرصاد الطقس والتوقعات من أكثر من 4000 مطار (تقارير الطقس للمطار METAR والتنبؤ بالطقس بالمطارTAF).

المحطات المتاحة هي النقط الصفراء والحمراء على الخريطة.

حرك المؤشر فوق النقطة لمعرفة اسم المحطة.

ثم انقر لمعرفة أرصاد وتوقعات الطقس.

لتغيير الخارطة: اضغط على الأزرار الخضراء مع رمز الصليب الأسود للتكبير. على الزر الأخضر مع شرطة للتصغير، أو على الأسهم الخضراء للخرائط المجاورة.


METAR-TAF: